Time;durP1;ratioP1;P1;durP2;ratioP2;P2;SDS_P1;SDS_P2;PMS_P1;PMS_P2;Temp;Humidity;BMP_temperature;BMP_pressure;BME280_temperature;BME280_humidity;BME280_pressure;Samples;Min_cycle;Max_cycle;Signal;HPM_P1;HPM_P2
2023/12/19 00:00:33;;;;;;;80.75;41.30;;;7.70;99.90;;;;;;5053844;28;20261;-67
2023/12/19 00:03:01;;;;;;;73.43;40.92;;;7.70;99.90;;;;;;5053876;28;20546;-67
2023/12/19 00:05:28;;;;;;;71.88;37.90;;;7.70;99.90;;;;;;5053552;28;20668;-71
2023/12/19 00:07:55;;;;;;;77.38;39.72;;;7.60;99.90;;;;;;5048273;28;20394;-70
2023/12/19 00:10:22;;;;;;;71.55;40.13;;;7.60;99.90;;;;;;5045564;28;20196;-68
2023/12/19 00:12:49;;;;;;;66.88;36.33;;;7.60;99.90;;;;;;5051846;28;20200;-66
2023/12/19 00:15:17;;;;;;;74.43;40.05;;;7.60;99.90;;;;;;5050138;28;20236;-67
2023/12/19 00:17:44;;;;;;;78.57;38.80;;;7.60;99.90;;;;;;5048789;28;20259;-66
2023/12/19 00:20:13;;;;;;;72.10;39.20;;;7.60;99.90;;;;;;5049492;28;20658;-65
2023/12/19 00:22:40;;;;;;;77.88;43.05;;;7.60;99.90;;;;;;5046524;28;20251;-65
2023/12/19 00:25:08;;;;;;;78.72;38.22;;;7.60;99.90;;;;;;5052125;28;20223;-66
2023/12/19 00:27:35;;;;;;;69.45;37.50;;;7.50;99.90;;;;;;5044052;28;20255;-65
2023/12/19 00:30:02;;;;;;;63.28;36.75;;;7.60;99.90;;;;;;5050400;28;20304;-67
2023/12/19 00:32:29;;;;;;;63.55;35.58;;;7.60;99.90;;;;;;5048190;28;20262;-67
2023/12/19 00:34:56;;;;;;;61.13;35.97;;;7.60;99.90;;;;;;5041269;28;20324;-68
2023/12/19 00:37:24;;;;;;;66.15;36.10;;;7.60;99.90;;;;;;5049549;28;20224;-67
2023/12/19 00:39:52;;;;;;;65.95;34.28;;;7.60;99.90;;;;;;5043709;28;20266;-66
2023/12/19 00:42:19;;;;;;;67.35;36.78;;;7.60;99.90;;;;;;5054046;28;20219;-66
2023/12/19 00:44:46;;;;;;;63.53;35.00;;;7.60;99.90;;;;;;5045657;28;20646;-68
2023/12/19 00:47:13;;;;;;;59.33;32.63;;;7.60;99.90;;;;;;5042645;28;20318;-69
2023/12/19 00:49:40;;;;;;;61.53;33.25;;;7.60;99.90;;;;;;5049809;28;20254;-69
2023/12/19 00:52:07;;;;;;;57.85;34.05;;;7.60;99.90;;;;;;5049325;28;20231;-67
2023/12/19 00:54:36;;;;;;;55.95;32.22;;;7.60;99.90;;;;;;5054885;28;20239;-68
2023/12/19 00:57:03;;;;;;;48.97;33.33;;;7.60;99.90;;;;;;5050151;28;20407;-68
2023/12/19 00:59:30;;;;;;;64.47;31.05;;;7.60;99.90;;;;;;5052285;28;20261;-69
2023/12/19 01:01:57;;;;;;;52.55;27.08;;;7.60;99.90;;;;;;5047228;28;20678;-68
2023/12/19 01:04:24;;;;;;;52.65;31.05;;;7.60;99.90;;;;;;5043930;28;20776;-64
2023/12/19 01:06:51;;;;;;;44.78;27.35;;;7.60;99.90;;;;;;5047514;28;20683;-66
2023/12/19 01:09:18;;;;;;;47.03;29.92;;;7.60;99.90;;;;;;5060026;28;20208;-69
2023/12/19 01:11:46;;;;;;;47.28;29.83;;;7.50;99.90;;;;;;5049113;28;20200;-68
2023/12/19 01:14:15;;;;;;;45.22;27.48;;;7.50;99.90;;;;;;5044800;28;20266;-68
2023/12/19 01:16:42;;;;;;;49.38;29.30;;;7.60;99.90;;;;;;5051291;28;20255;-65
2023/12/19 01:19:09;;;;;;;45.38;27.25;;;7.50;99.90;;;;;;5046787;28;20193;-66
2023/12/19 01:21:36;;;;;;;43.05;28.48;;;7.60;99.90;;;;;;5046926;28;20777;-67
2023/12/19 01:24:06;;;;;;;45.00;27.13;;;7.60;99.90;;;;;;5040618;28;20271;-68
2023/12/19 01:26:33;;;;;;;41.85;26.95;;;7.50;99.90;;;;;;5042574;28;20259;-69
2023/12/19 01:29:02;;;;;;;40.20;25.45;;;7.50;99.90;;;;;;5045003;28;20200;-65
2023/12/19 01:31:29;;;;;;;42.13;25.40;;;7.50;99.90;;;;;;5040418;28;20639;-70
2023/12/19 01:33:58;;;;;;;37.90;27.40;;;7.50;99.90;;;;;;5051218;28;20240;-63
2023/12/19 01:36:26;;;;;;;36.65;23.20;;;7.50;99.90;;;;;;5051462;28;20246;-66
2023/12/19 01:38:53;;;;;;;38.80;25.15;;;7.50;99.90;;;;;;5052000;28;20204;-67
2023/12/19 01:41:21;;;;;;;37.35;25.48;;;7.50;99.90;;;;;;5050575;28;20294;-69
2023/12/19 01:43:49;;;;;;;29.65;21.48;;;7.50;99.90;;;;;;5048505;28;20277;-68
2023/12/19 01:46:18;;;;;;;40.20;24.73;;;7.50;99.90;;;;;;5053072;28;20273;-65
2023/12/19 01:48:46;;;;;;;38.75;24.40;;;7.50;99.90;;;;;;5045862;28;20200;-67
2023/12/19 01:51:13;;;;;;;38.50;21.83;;;7.50;99.90;;;;;;5047949;28;20196;-67
2023/12/19 01:53:44;;;;;;;32.60;22.15;;;7.50;99.90;;;;;;5046593;28;20200;-69
2023/12/19 01:56:11;;;;;;;44.88;27.00;;;7.50;99.90;;;;;;5052069;28;20255;-65
2023/12/19 01:58:39;;;;;;;34.33;22.20;;;7.40;99.90;;;;;;5051639;28;20227;-65
2023/12/19 02:01:07;;;;;;;42.47;25.98;;;7.50;99.90;;;;;;5051849;28;20246;-66
2023/12/19 02:03:36;;;;;;;43.15;26.25;;;7.50;99.90;;;;;;5050374;28;20263;-69
2023/12/19 02:06:04;;;;;;;44.55;27.40;;;7.40;99.90;;;;;;5047177;28;20705;-69
2023/12/19 02:08:31;;;;;;;40.95;25.10;;;7.50;99.90;;;;;;5043963;28;20204;-66
2023/12/19 02:10:58;;;;;;;41.15;26.38;;;7.50;99.90;;;;;;5050800;28;20203;-68
2023/12/19 02:13:25;;;;;;;47.95;25.63;;;7.50;99.90;;;;;;5043902;28;20645;-67
2023/12/19 02:15:52;;;;;;;34.50;24.35;;;7.50;99.90;;;;;;5039888;28;20228;-69
2023/12/19 02:18:20;;;;;;;39.83;24.95;;;7.50;99.90;;;;;;5055480;28;20258;-67
2023/12/19 02:20:49;;;;;;;37.58;25.35;;;7.50;99.90;;;;;;5043514;28;20247;-66
2023/12/19 02:23:17;;;;;;;38.00;23.67;;;7.40;99.90;;;;;;5039136;28;20282;-65
2023/12/19 02:25:46;;;;;;;34.25;22.73;;;7.40;99.90;;;;;;5046497;28;20208;-66
2023/12/19 02:28:13;;;;;;;40.58;25.40;;;7.40;99.90;;;;;;5050531;28;20220;-65
2023/12/19 02:30:40;;;;;;;45.08;25.75;;;7.40;99.90;;;;;;5052572;28;20208;-68
2023/12/19 02:33:07;;;;;;;41.13;24.92;;;7.40;99.90;;;;;;5041423;28;20196;-66
2023/12/19 02:35:34;;;;;;;37.17;24.05;;;7.40;99.90;;;;;;5049435;28;20216;-68
2023/12/19 02:38:02;;;;;;;37.20;23.38;;;7.40;99.90;;;;;;5044973;28;20255;-68
2023/12/19 02:40:31;;;;;;;32.28;21.52;;;7.40;99.90;;;;;;5047643;28;20223;-65
2023/12/19 02:42:59;;;;;;;29.92;21.58;;;7.40;99.90;;;;;;5048383;28;20252;-68
2023/12/19 02:45:28;;;;;;;42.40;23.13;;;7.40;99.90;;;;;;5049824;28;20207;-66
2023/12/19 02:47:55;;;;;;;32.47;20.25;;;7.40;99.90;;;;;;5045978;28;20219;-68
2023/12/19 02:50:22;;;;;;;33.67;20.63;;;7.50;99.90;;;;;;5043304;28;20236;-64
2023/12/19 02:52:49;;;;;;;37.40;24.60;;;7.40;99.90;;;;;;5055628;28;20231;-67
2023/12/19 02:55:16;;;;;;;30.38;21.25;;;7.40;99.90;;;;;;5044450;28;20239;-65
2023/12/19 02:57:44;;;;;;;29.23;20.25;;;7.40;99.90;;;;;;5054808;28;20317;-66
2023/12/19 03:00:12;;;;;;;34.53;20.20;;;7.40;99.90;;;;;;5046804;28;20232;-68
2023/12/19 03:02:39;;;;;;;31.75;23.20;;;7.50;99.90;;;;;;5038671;28;20197;-67
2023/12/19 03:05:07;;;;;;;34.20;22.35;;;7.50;99.90;;;;;;5045787;28;20208;-69
2023/12/19 03:07:34;;;;;;;32.45;21.80;;;7.50;99.90;;;;;;5050739;28;20226;-68
2023/12/19 03:10:05;;;;;;;33.05;20.92;;;7.40;99.90;;;;;;5046164;28;20721;-70
2023/12/19 03:12:33;;;;;;;39.13;21.67;;;7.50;99.90;;;;;;5051053;28;20279;-68
2023/12/19 03:15:01;;;;;;;34.47;23.08;;;7.50;99.90;;;;;;5048574;28;20200;-67
2023/12/19 03:17:28;;;;;;;36.33;24.13;;;7.50;99.90;;;;;;5049565;28;20224;-67
2023/12/19 03:19:55;;;;;;;33.10;22.27;;;7.50;99.90;;;;;;5047535;28;20257;-69
2023/12/19 03:22:22;;;;;;;37.67;24.17;;;7.50;99.90;;;;;;5052396;28;20254;-67
2023/12/19 03:24:49;;;;;;;43.13;24.30;;;7.50;99.90;;;;;;5049424;28;20255;-69
2023/12/19 03:27:16;;;;;;;38.03;23.33;;;7.50;99.90;;;;;;5045904;28;20228;-69
2023/12/19 03:29:44;;;;;;;35.60;23.05;;;7.50;99.90;;;;;;5049952;28;20204;-69
2023/12/19 03:32:12;;;;;;;38.08;25.33;;;7.60;99.90;;;;;;5054065;28;20208;-66
2023/12/19 03:34:39;;;;;;;46.38;27.70;;;7.50;99.90;;;;;;5046218;28;20541;-70
2023/12/19 03:37:06;;;;;;;41.85;25.10;;;7.60;99.90;;;;;;5052095;28;20243;-68
2023/12/19 03:39:34;;;;;;;42.83;25.13;;;7.50;99.90;;;;;;5046407;28;20217;-68
2023/12/19 03:42:02;;;;;;;44.25;25.90;;;7.50;99.90;;;;;;5050164;28;20275;-68
2023/12/19 03:44:28;;;;;;;48.90;26.92;;;7.50;99.90;;;;;;5052972;28;20702;-66
2023/12/19 03:46:55;;;;;;;45.10;26.02;;;7.50;99.90;;;;;;5053720;28;20330;-68
2023/12/19 03:49:24;;;;;;;41.95;28.20;;;7.50;99.90;;;;;;5050336;28;20693;-66
2023/12/19 03:51:51;;;;;;;54.33;29.58;;;7.40;99.90;;;;;;5039610;28;20655;-68
2023/12/19 03:54:17;;;;;;;52.92;30.27;;;7.40;99.90;;;;;;5048044;28;20250;-69
2023/12/19 03:56:44;;;;;;;48.15;26.60;;;7.40;99.90;;;;;;5054343;28;20281;-67
2023/12/19 03:59:11;;;;;;;53.30;27.38;;;7.40;99.90;;;;;;5049620;28;20623;-69
2023/12/19 04:01:45;;;;;;;48.67;27.55;;;7.40;99.90;;;;;;5045929;28;20286;-66
2023/12/19 04:04:13;;;;;;;41.22;24.85;;;7.40;99.90;;;;;;5050121;28;20319;-68
2023/12/19 04:06:43;;;;;;;42.95;24.95;;;7.50;99.90;;;;;;5050092;28;20690;-67
2023/12/19 04:09:10;;;;;;;31.90;21.77;;;7.50;99.90;;;;;;5040365;28;20200;-69
2023/12/19 04:11:37;;;;;;;46.63;24.35;;;7.50;99.90;;;;;;5049311;28;20209;-66
2023/12/19 04:14:05;;;;;;;34.83;22.23;;;7.40;99.90;;;;;;5045910;28;20204;-67
2023/12/19 04:16:33;;;;;;;36.15;21.63;;;7.40;99.90;;;;;;5040557;28;20273;-68
2023/12/19 04:18:59;;;;;;;33.58;20.17;;;7.40;99.90;;;;;;5055004;28;20243;-64
2023/12/19 04:21:26;;;;;;;28.45;19.95;;;7.30;99.90;;;;;;5048907;28;20231;-66
2023/12/19 04:23:55;;;;;;;29.65;18.92;;;7.30;99.90;;;;;;5042452;28;20578;-67
2023/12/19 04:26:22;;;;;;;27.20;17.83;;;7.20;99.90;;;;;;5050197;28;20224;-66
2023/12/19 04:28:49;;;;;;;24.05;16.88;;;7.30;99.90;;;;;;5046807;28;20297;-65
2023/12/19 04:31:16;;;;;;;26.75;17.63;;;7.30;99.90;;;;;;5045004;28;20255;-67
2023/12/19 04:33:43;;;;;;;23.83;16.05;;;7.20;99.90;;;;;;5053962;28;20261;-68
2023/12/19 04:36:10;;;;;;;24.02;15.07;;;7.20;99.90;;;;;;5044890;28;20240;-68
2023/12/19 04:38:37;;;;;;;20.73;13.35;;;7.20;99.90;;;;;;5046027;28;20295;-69
2023/12/19 04:41:06;;;;;;;19.27;14.30;;;7.20;99.90;;;;;;5049542;28;20201;-65
2023/12/19 04:43:33;;;;;;;26.60;15.15;;;7.20;99.90;;;;;;5047678;28;20227;-67
2023/12/19 04:46:02;;;;;;;20.92;15.63;;;7.20;99.90;;;;;;5042381;28;20228;-66
2023/12/19 04:48:31;;;;;;;17.70;13.90;;;7.20;99.90;;;;;;5044983;28;20205;-65
2023/12/19 04:50:59;;;;;;;22.17;11.52;;;7.20;99.90;;;;;;5055126;28;20219;-66
2023/12/19 04:53:26;;;;;;;16.88;12.30;;;7.20;99.90;;;;;;5049820;28;20211;-67
2023/12/19 04:55:53;;;;;;;15.43;11.25;;;7.20;99.90;;;;;;5048308;28;20716;-65
2023/12/19 04:58:21;;;;;;;15.45;11.90;;;7.20;99.90;;;;;;5052619;28;20223;-67
2023/12/19 05:00:51;;;;;;;14.98;10.80;;;7.20;99.90;;;;;;5049862;28;20208;-68
2023/12/19 05:03:18;;;;;;;12.73;10.35;;;7.20;99.90;;;;;;5049549;28;20250;-67
2023/12/19 05:05:45;;;;;;;13.80;10.57;;;7.20;99.90;;;;;;5049836;28;20243;-68
2023/12/19 05:08:14;;;;;;;14.52;10.57;;;7.20;99.90;;;;;;5052076;28;20294;-64
2023/12/19 05:10:40;;;;;;;14.45;10.75;;;7.20;99.90;;;;;;5053073;28;20250;-69
2023/12/19 05:13:07;;;;;;;15.18;11.02;;;7.30;99.90;;;;;;5044588;28;20201;-66
2023/12/19 05:15:36;;;;;;;15.55;11.50;;;7.20;99.90;;;;;;5046771;28;20262;-66
2023/12/19 05:18:03;;;;;;;13.55;9.52;;;7.30;99.90;;;;;;5047560;28;20220;-65
2023/12/19 05:20:30;;;;;;;11.85;10.20;;;7.20;99.90;;;;;;5044019;28;20558;-65
2023/12/19 05:22:58;;;;;;;13.20;9.55;;;7.30;99.90;;;;;;5035741;28;20205;-66
2023/12/19 05:25:25;;;;;;;14.75;10.73;;;7.20;99.90;;;;;;5046988;28;20285;-67
2023/12/19 05:27:53;;;;;;;11.15;8.52;;;7.30;99.90;;;;;;5043639;28;20221;-65
2023/12/19 05:30:20;;;;;;;11.25;8.50;;;7.30;99.90;;;;;;5051318;28;20258;-66
2023/12/19 05:32:49;;;;;;;9.93;8.70;;;7.30;99.90;;;;;;5052498;28;20655;-69
2023/12/19 05:35:16;;;;;;;13.25;9.38;;;7.30;99.90;;;;;;5047153;28;20254;-68
2023/12/19 05:37:44;;;;;;;11.18;8.82;;;7.30;99.90;;;;;;5044481;28;20259;-66
2023/12/19 05:40:12;;;;;;;12.77;9.73;;;7.30;99.90;;;;;;5051718;28;20261;-66
2023/12/19 05:42:39;;;;;;;11.55;10.10;;;7.40;99.90;;;;;;5049316;28;20197;-64
2023/12/19 05:45:08;;;;;;;11.77;8.63;;;7.40;99.90;;;;;;5047239;28;20309;-64
2023/12/19 05:47:36;;;;;;;12.38;9.68;;;7.30;99.90;;;;;;5050847;28;20306;-66
2023/12/19 05:50:05;;;;;;;12.20;9.20;;;7.30;99.90;;;;;;5041534;28;20200;-63
2023/12/19 05:52:38;;;;;;;11.32;9.45;;;7.40;99.90;;;;;;5051263;28;20207;-64
2023/12/19 05:55:06;;;;;;;11.10;8.75;;;7.40;99.90;;;;;;5043786;28;20204;-66
2023/12/19 05:57:36;;;;;;;12.25;8.77;;;7.30;99.90;;;;;;5049725;28;20666;-68
2023/12/19 06:00:04;;;;;;;9.80;8.32;;;7.30;99.90;;;;;;5040179;28;20651;-67
2023/12/19 06:02:31;;;;;;;11.88;9.90;;;7.30;99.90;;;;;;5046235;28;20894;-64
2023/12/19 06:05:00;;;;;;;8.95;7.43;;;7.40;99.90;;;;;;5045134;28;20563;-64
2023/12/19 06:07:29;;;;;;;9.40;7.90;;;7.40;99.90;;;;;;5048603;28;20275;-66
2023/12/19 06:09:55;;;;;;;9.77;8.73;;;7.30;99.90;;;;;;5051741;28;20222;-65
2023/12/19 06:12:24;;;;;;;12.02;7.30;;;7.30;99.90;;;;;;5049933;28;20258;-64
2023/12/19 06:14:51;;;;;;;10.13;7.43;;;7.40;99.90;;;;;;5048508;28;20246;-69
2023/12/19 06:17:18;;;;;;;8.73;7.10;;;7.40;99.90;;;;;;5044597;28;20296;-66
2023/12/19 06:19:46;;;;;;;8.25;7.15;;;7.30;99.90;;;;;;5053732;28;20208;-67
2023/12/19 06:22:13;;;;;;;8.88;6.97;;;7.30;99.90;;;;;;5046723;28;20211;-66
2023/12/19 06:24:41;;;;;;;8.88;6.90;;;7.30;99.90;;;;;;5042570;28;20266;-65
2023/12/19 06:27:08;;;;;;;7.57;6.70;;;7.30;99.90;;;;;;5046594;28;20274;-68
2023/12/19 06:29:35;;;;;;;8.50;6.63;;;7.20;99.90;;;;;;5048427;28;20631;-67
2023/12/19 06:32:02;;;;;;;9.93;7.60;;;7.30;99.90;;;;;;5046897;28;20204;-69
2023/12/19 06:34:29;;;;;;;9.18;6.97;;;7.30;99.90;;;;;;5047141;28;20614;-64
2023/12/19 06:36:56;;;;;;;10.40;6.75;;;7.30;99.90;;;;;;5046546;28;20635;-68
2023/12/19 06:39:23;;;;;;;7.35;6.05;;;7.30;99.90;;;;;;5048493;28;20220;-64
2023/12/19 06:41:53;;;;;;;7.55;6.22;;;7.20;99.90;;;;;;5047374;28;20236;-68
2023/12/19 06:44:20;;;;;;;11.98;8.52;;;7.20;99.90;;;;;;5060006;28;20720;-69
2023/12/19 06:46:49;;;;;;;9.13;6.38;;;7.20;99.90;;;;;;5050280;28;20220;-64
2023/12/19 06:49:17;;;;;;;9.98;7.53;;;7.20;99.90;;;;;;5047849;28;20618;-69
2023/12/19 06:51:44;;;;;;;8.82;6.55;;;7.20;99.90;;;;;;5047908;28;20253;-66
2023/12/19 06:54:12;;;;;;;10.20;5.70;;;7.20;99.90;;;;;;5053702;28;20663;-69
2023/12/19 06:56:39;;;;;;;8.07;5.57;;;7.20;99.90;;;;;;5045482;28;20224;-67
2023/12/19 06:59:08;;;;;;;7.22;5.63;;;7.20;99.90;;;;;;5047721;28;20574;-65
2023/12/19 07:01:36;;;;;;;8.98;6.45;;;7.20;99.90;;;;;;5051354;28;20247;-70
2023/12/19 07:04:04;;;;;;;8.48;6.30;;;7.20;99.90;;;;;;5046230;28;20208;-66
2023/12/19 07:06:32;;;;;;;8.85;7.55;;;7.20;99.90;;;;;;5054655;28;20667;-68
2023/12/19 07:08:59;;;;;;;8.40;6.25;;;7.20;99.90;;;;;;5048176;28;20199;-69
2023/12/19 07:11:26;;;;;;;6.40;5.32;;;7.20;99.90;;;;;;5049988;28;20201;-65
2023/12/19 07:13:55;;;;;;;10.27;6.05;;;7.20;99.90;;;;;;5048146;28;20192;-68
2023/12/19 07:16:25;;;;;;;6.50;4.00;;;7.30;99.90;;;;;;5051506;28;20752;-71
2023/12/19 07:18:52;;;;;;;6.22;5.50;;;7.30;99.90;;;;;;5046903;28;20266;-69
2023/12/19 07:21:22;;;;;;;6.75;5.13;;;7.20;99.90;;;;;;5046260;28;20274;-66
2023/12/19 07:23:50;;;;;;;5.53;4.90;;;7.20;99.90;;;;;;5047253;28;20322;-66
2023/12/19 07:26:21;;;;;;;5.13;4.47;;;7.20;99.90;;;;;;5050683;28;20239;-67
2023/12/19 07:28:49;;;;;;;5.70;4.90;;;7.30;99.90;;;;;;5053648;28;20305;-66
2023/12/19 07:31:21;;;;;;;7.03;5.63;;;7.30;99.90;;;;;;5048464;28;20235;-69
2023/12/19 07:33:51;;;;;;;7.65;6.68;;;7.30;99.90;;;;;;5053859;28;20204;-67
2023/12/19 07:36:18;;;;;;;8.52;6.53;;;7.20;99.90;;;;;;5054594;28;20306;-69
2023/12/19 07:38:45;;;;;;;7.00;4.85;;;7.20;99.90;;;;;;5054353;28;20208;-69
2023/12/19 07:41:12;;;;;;;7.90;6.13;;;7.30;99.90;;;;;;5043516;28;20709;-69
2023/12/19 07:43:39;;;;;;;7.53;6.15;;;7.30;99.90;;;;;;5040168;28;20281;-69
2023/12/19 07:46:07;;;;;;;6.18;4.72;;;7.20;99.90;;;;;;5043973;28;20277;-66
2023/12/19 07:48:34;;;;;;;6.63;5.65;;;7.30;99.90;;;;;;5048310;28;20278;-67
2023/12/19 07:51:03;;;;;;;6.88;5.53;;;7.20;99.90;;;;;;5042335;28;20197;-67
2023/12/19 07:53:30;;;;;;;7.15;4.88;;;7.20;99.90;;;;;;5052065;28;20287;-67
2023/12/19 07:56:03;;;;;;;6.07;5.43;;;7.30;99.90;;;;;;5049014;28;22063;-64
2023/12/19 07:58:30;;;;;;;7.10;5.55;;;7.20;99.90;;;;;;5046534;28;20223;-68
2023/12/19 08:00:58;;;;;;;6.93;4.80;;;7.20;99.90;;;;;;5054892;28;20200;-67
2023/12/19 08:03:25;;;;;;;7.85;5.63;;;7.20;99.90;;;;;;5053839;28;20218;-65
2023/12/19 08:05:54;;;;;;;7.72;5.15;;;7.30;99.90;;;;;;5052508;28;20220;-69
2023/12/19 08:08:23;;;;;;;6.72;5.65;;;7.30;99.90;;;;;;5049865;28;20227;-68
2023/12/19 08:10:50;;;;;;;8.75;5.63;;;7.30;99.90;;;;;;5053663;28;20398;-69
2023/12/19 08:13:20;;;;;;;6.05;4.70;;;7.30;99.90;;;;;;5057077;28;20196;-69
2023/12/19 08:15:47;;;;;;;6.80;4.95;;;7.30;99.90;;;;;;5053270;28;20287;-68
2023/12/19 08:18:14;;;;;;;6.47;5.45;;;7.30;99.90;;;;;;5046618;28;20220;-67
2023/12/19 08:20:42;;;;;;;7.75;4.88;;;7.30;99.90;;;;;;5049970;28;20261;-65
2023/12/19 08:23:08;;;;;;;4.82;4.32;;;7.30;99.90;;;;;;5044153;28;20205;-67
2023/12/19 08:25:38;;;;;;;6.85;4.95;;;7.30;99.90;;;;;;5048224;28;20312;-67
2023/12/19 08:28:05;;;;;;;7.82;6.00;;;7.40;99.90;;;;;;5052174;28;20224;-65
2023/12/19 08:30:34;;;;;;;5.38;4.45;;;7.40;99.90;;;;;;5046965;28;20281;-68
2023/12/19 08:33:01;;;;;;;7.25;4.97;;;7.40;99.90;;;;;;5049187;28;20231;-66
2023/12/19 08:35:29;;;;;;;5.43;4.65;;;7.40;99.90;;;;;;5051703;28;20208;-64
2023/12/19 08:37:56;;;;;;;7.68;5.55;;;7.40;99.90;;;;;;5042503;28;20247;-65
2023/12/19 08:40:23;;;;;;;7.57;5.70;;;7.40;99.90;;;;;;5042676;28;20558;-67
2023/12/19 08:42:53;;;;;;;7.45;5.40;;;7.40;99.90;;;;;;5052130;28;20208;-68
2023/12/19 08:45:22;;;;;;;8.00;5.40;;;7.50;99.90;;;;;;5044631;28;20221;-67
2023/12/19 08:47:51;;;;;;;6.40;5.30;;;7.40;99.90;;;;;;5050395;28;20223;-65
2023/12/19 08:50:18;;;;;;;10.30;7.30;;;7.40;99.90;;;;;;5046919;28;20201;-68
2023/12/19 08:52:47;;;;;;;6.78;5.43;;;7.50;99.90;;;;;;5047403;28;20287;-64
2023/12/19 08:55:14;;;;;;;5.70;5.07;;;7.50;99.90;;;;;;5048192;28;20288;-67
2023/12/19 08:57:43;;;;;;;9.45;6.25;;;7.50;99.90;;;;;;5044431;28;20226;-66
2023/12/19 09:00:16;;;;;;;7.57;6.88;;;7.50;99.90;;;;;;5042913;28;20219;-69
2023/12/19 09:02:43;;;;;;;7.32;5.95;;;7.50;99.90;;;;;;5048134;28;20582;-66
2023/12/19 09:05:11;;;;;;;9.27;6.53;;;7.50;99.90;;;;;;5043967;28;20216;-69
2023/12/19 09:07:38;;;;;;;7.85;6.82;;;7.50;99.90;;;;;;5052027;28;20299;-68
2023/12/19 09:10:06;;;;;;;8.80;6.28;;;7.50;99.90;;;;;;5047371;28;20279;-69
2023/12/19 09:12:33;;;;;;;12.20;7.57;;;7.40;99.90;;;;;;5053691;28;20210;-69
2023/12/19 09:15:02;;;;;;;9.10;6.15;;;7.50;99.90;;;;;;5051738;28;20257;-67
2023/12/19 09:17:30;;;;;;;7.65;6.05;;;7.50;99.90;;;;;;5047572;28;20220;-63
2023/12/19 09:19:58;;;;;;;6.60;5.90;;;7.50;99.90;;;;;;5049792;28;20200;-67
2023/12/19 09:22:26;;;;;;;6.75;6.05;;;7.50;99.90;;;;;;5054194;28;20204;-67
2023/12/19 09:24:53;;;;;;;6.97;5.85;;;7.50;99.90;;;;;;5052351;28;20280;-65
2023/12/19 09:27:20;;;;;;;7.28;5.80;;;7.60;99.90;;;;;;5051681;28;20258;-70
2023/12/19 09:29:47;;;;;;;8.73;7.80;;;7.70;99.90;;;;;;5043482;28;20197;-66
2023/12/19 09:32:16;;;;;;;7.50;6.55;;;7.60;99.90;;;;;;5045718;28;20329;-70
2023/12/19 09:34:45;;;;;;;8.68;6.95;;;7.70;99.90;;;;;;5051378;28;20334;-65
2023/12/19 09:37:12;;;;;;;10.70;5.75;;;7.60;99.90;;;;;;5029183;28;20270;-68
2023/12/19 09:39:39;;;;;;;8.20;6.47;;;7.70;99.90;;;;;;5046036;28;20208;-69
2023/12/19 09:42:08;;;;;;;10.25;6.47;;;7.70;99.90;;;;;;5044783;28;20257;-68
2023/12/19 09:44:35;;;;;;;8.00;7.20;;;7.70;99.90;;;;;;5049564;28;20208;-66
2023/12/19 09:47:04;;;;;;;12.52;7.25;;;7.80;99.90;;;;;;5043630;28;20273;-72
2023/12/19 09:49:39;;;;;;;8.05;6.72;;;7.80;99.90;;;;;;5047539;28;20205;-70
2023/12/19 09:52:12;;;;;;;6.88;5.75;;;7.80;99.90;;;;;;5046631;28;20245;-66
2023/12/19 09:54:40;;;;;;;8.93;6.95;;;7.80;99.90;;;;;;5048549;28;20196;-70
2023/12/19 09:57:08;;;;;;;9.25;6.10;;;7.80;99.90;;;;;;5047659;28;20303;-66
2023/12/19 09:59:37;;;;;;;11.90;6.05;;;7.80;99.90;;;;;;5042426;28;20553;-69
2023/12/19 10:02:05;;;;;;;9.75;6.68;;;7.80;99.90;;;;;;5044241;28;20204;-67
2023/12/19 10:04:32;;;;;;;7.90;5.60;;;7.80;99.90;;;;;;5044360;28;20208;-67
2023/12/19 10:07:00;;;;;;;7.50;5.47;;;7.90;99.90;;;;;;5044497;28;20231;-66
2023/12/19 10:09:28;;;;;;;7.25;6.25;;;8.00;99.90;;;;;;5048798;28;20666;-66
2023/12/19 10:12:06;;;;;;;8.70;6.95;;;8.00;99.90;;;;;;5042180;28;20278;-69
2023/12/19 10:14:34;;;;;;;9.13;6.10;;;7.90;99.90;;;;;;5041620;28;20263;-66
2023/12/19 10:17:04;;;;;;;7.82;5.95;;;8.00;99.90;;;;;;5050303;28;20219;-65
2023/12/19 10:19:33;;;;;;;7.50;5.70;;;8.00;99.90;;;;;;5044014;28;20295;-67
2023/12/19 10:22:10;;;;;;;9.02;7.13;;;7.90;99.90;;;;;;5049470;28;20200;-66
2023/12/19 10:24:39;;;;;;;6.22;4.95;;;8.00;99.90;;;;;;5036525;28;20215;-65
2023/12/19 10:27:07;;;;;;;6.07;5.25;;;8.00;99.90;;;;;;5051506;28;20281;-69
2023/12/19 10:29:38;;;;;;;11.23;5.32;;;8.00;99.90;;;;;;5044423;28;20211;-68
2023/12/19 10:32:16;;;;;;;6.90;5.55;;;8.00;99.90;;;;;;5052718;28;20257;-67
2023/12/19 10:34:44;;;;;;;5.43;4.68;;;8.00;99.90;;;;;;5049006;28;20219;-66
2023/12/19 10:37:12;;;;;;;16.17;9.98;;;8.00;99.90;;;;;;5051711;28;20224;-65
2023/12/19 10:39:43;;;;;;;7.30;5.38;;;8.00;99.90;;;;;;5040674;28;20721;-65
2023/12/19 10:42:10;;;;;;;5.80;5.20;;;8.00;99.90;;;;;;5042430;28;20204;-66
2023/12/19 10:44:39;;;;;;;6.30;5.40;;;8.00;99.90;;;;;;5044952;28;21615;-67
2023/12/19 10:47:08;;;;;;;7.40;5.60;;;8.10;99.90;;;;;;5045340;28;20702;-67
2023/12/19 10:49:36;;;;;;;9.27;5.15;;;8.10;99.90;;;;;;5046660;28;20258;-66
2023/12/19 10:52:07;;;;;;;6.78;5.40;;;8.10;99.90;;;;;;5043709;28;20200;-68
2023/12/19 10:54:36;;;;;;;7.32;5.80;;;8.10;99.90;;;;;;5048490;28;20204;-69
2023/12/19 10:57:11;;;;;;;8.45;5.18;;;8.10;99.90;;;;;;5049701;28;20304;-67
2023/12/19 10:59:48;;;;;;;7.30;6.03;;;8.10;99.90;;;;;;5045790;28;20199;-68
2023/12/19 11:02:28;;;;;;;7.43;5.60;;;8.20;99.90;;;;;;5031668;28;20207;-65
2023/12/19 11:05:05;;;;;;;13.73;5.40;;;8.10;99.90;;;;;;5028624;28;20239;-66
2023/12/19 11:07:35;;;;;;;6.30;5.70;;;8.20;99.90;;;;;;5029347;28;20228;-68
2023/12/19 11:10:07;;;;;;;5.53;4.90;;;8.20;99.90;;;;;;5048213;28;20200;-67
2023/12/19 11:12:36;;;;;;;7.40;6.38;;;8.20;99.90;;;;;;5048444;28;20236;-65
2023/12/19 11:15:05;;;;;;;6.68;5.85;;;8.20;99.90;;;;;;5050115;28;20250;-71
2023/12/19 11:17:39;;;;;;;6.60;5.90;;;8.20;99.90;;;;;;5046777;28;20224;-66
2023/12/19 11:20:15;;;;;;;7.00;6.30;;;8.20;99.90;;;;;;5037080;28;20224;-66
2023/12/19 11:22:56;;;;;;;11.18;7.30;;;8.20;99.90;;;;;;5054659;28;20203;-68
2023/12/19 11:25:30;;;;;;;7.50;6.20;;;8.30;99.90;;;;;;5029166;28;20201;-68
2023/12/19 11:28:03;;;;;;;8.02;7.22;;;8.30;99.90;;;;;;5050635;28;20599;-70
2023/12/19 11:30:36;;;;;;;8.15;6.85;;;8.30;99.90;;;;;;5028728;28;20662;-68
2023/12/19 11:33:06;;;;;;;7.53;6.72;;;8.30;99.90;;;;;;5054537;28;20552;-65
2023/12/19 11:35:33;;;;;;;7.70;6.68;;;8.30;99.90;;;;;;5049078;28;20252;-69
2023/12/19 11:38:25;;;;;;;8.18;7.30;;;8.30;99.90;;;;;;5044182;28;20224;-67
2023/12/19 11:40:54;;;;;;;7.70;6.80;;;8.40;99.90;;;;;;5046019;28;20197;-66
2023/12/19 11:43:56;;;;;;;11.00;9.23;;;8.50;99.90;;;;;;5047758;28;20539;-66
2023/12/19 11:46:25;;;;;;;8.38;7.53;;;8.50;99.90;;;;;;5048300;28;20220;-70
2023/12/19 11:48:53;;;;;;;8.00;7.00;;;8.40;99.90;;;;;;5049560;28;20620;-68
2023/12/19 11:51:50;;;;;;;9.13;8.13;;;8.40;99.90;;;;;;5051286;28;20332;-67
2023/12/19 11:54:19;;;;;;;7.90;6.90;;;8.40;99.90;;;;;;5052478;28;20239;-67
2023/12/19 11:56:45;;;;;;;8.77;7.88;;;8.50;99.90;;;;;;5047158;28;20270;-69
2023/12/19 11:59:15;;;;;;;8.48;7.68;;;8.50;99.90;;;;;;5044546;28;20297;-65
2023/12/19 12:01:43;;;;;;;11.68;10.00;;;8.50;99.90;;;;;;5053401;28;20211;-66
2023/12/19 12:04:11;;;;;;;9.05;8.23;;;8.40;99.90;;;;;;5046765;28;20564;-65
2023/12/19 12:06:39;;;;;;;8.85;8.00;;;8.50;99.90;;;;;;5046851;28;20232;-68
2023/12/19 12:09:06;;;;;;;13.15;10.57;;;8.50;99.90;;;;;;5047782;28;20235;-69
2023/12/19 12:11:47;;;;;;;9.63;7.80;;;8.50;99.90;;;;;;5051477;28;20270;-70
2023/12/19 12:14:16;;;;;;;11.38;9.75;;;8.50;99.90;;;;;;5048637;28;20667;-68
2023/12/19 12:16:43;;;;;;;10.43;8.50;;;8.50;99.90;;;;;;5045773;28;20219;-65
2023/12/19 12:19:14;;;;;;;9.38;7.45;;;8.50;99.90;;;;;;5054213;28;20231;-65
2023/12/19 12:21:45;;;;;;;10.30;9.27;;;8.50;99.90;;;;;;5053372;28;20651;-64
2023/12/19 12:24:21;;;;;;;11.50;9.30;;;8.50;99.90;;;;;;5053085;28;20523;-67
2023/12/19 12:26:49;;;;;;;13.00;9.43;;;8.60;99.90;;;;;;5040541;28;20223;-67
2023/12/19 12:29:20;;;;;;;9.27;8.32;;;8.60;99.90;;;;;;5024887;28;20208;-69
2023/12/19 12:31:48;;;;;;;10.45;9.35;;;8.60;99.90;;;;;;5046235;28;20208;-69
2023/12/19 12:34:16;;;;;;;10.77;8.70;;;8.60;99.90;;;;;;5047717;28;20294;-66
2023/12/19 12:36:49;;;;;;;10.95;9.45;;;8.60;99.90;;;;;;5045257;28;20718;-69
2023/12/19 12:39:20;;;;;;;10.68;9.55;;;8.70;99.90;;;;;;5047177;28;20205;-66
2023/12/19 12:41:47;;;;;;;12.60;11.32;;;8.70;99.90;;;;;;5042681;28;20239;-68
2023/12/19 12:44:14;;;;;;;10.75;9.65;;;8.70;99.90;;;;;;5053565;28;20278;-67
2023/12/19 12:46:46;;;;;;;13.07;10.80;;;8.70;99.90;;;;;;5042138;28;20660;-65
2023/12/19 12:49:19;;;;;;;15.40;11.82;;;8.70;99.90;;;;;;5044843;28;20200;-69
2023/12/19 12:51:46;;;;;;;19.38;13.07;;;8.70;99.90;;;;;;5048667;28;20548;-69